createdAt,value
2019-05-18T00:00:37.866Z,70
2019-05-18T00:01:39.958Z,70
2019-05-18T00:02:42.056Z,70
2019-05-18T00:03:44.441Z,70
2019-05-18T00:04:46.581Z,70
2019-05-18T00:05:48.683Z,70
2019-05-18T00:06:50.785Z,70
2019-05-18T00:07:52.935Z,70
2019-05-18T00:08:54.957Z,70
2019-05-18T00:09:57.424Z,70
2019-05-18T00:10:59.508Z,70
2019-05-18T00:12:01.583Z,71
2019-05-18T00:13:04.403Z,70
2019-05-18T00:14:06.823Z,70
2019-05-18T00:15:09.343Z,70
2019-05-18T00:16:11.734Z,70
2019-05-18T00:17:26.325Z,70
2019-05-18T00:18:29.053Z,70
2019-05-18T00:19:31.531Z,70
2019-05-18T00:20:33.639Z,70
2019-05-18T00:21:36.012Z,70
2019-05-18T00:22:38.167Z,70
2019-05-18T00:23:40.283Z,69
2019-05-18T00:24:42.678Z,70
2019-05-18T00:25:45.103Z,70
2019-05-18T00:26:47.568Z,70
2019-05-18T00:27:49.705Z,70
2019-05-18T00:28:52.187Z,70
2019-05-18T00:29:54.314Z,69
2019-05-18T00:30:56.798Z,70
2019-05-18T00:31:58.934Z,69
2019-05-18T00:33:01.048Z,70
2019-05-18T00:34:03.523Z,70
2019-05-18T00:35:05.712Z,70
2019-05-18T00:36:07.814Z,70
2019-05-18T00:37:09.895Z,70
2019-05-18T00:38:11.991Z,70
2019-05-18T00:39:14.694Z,70
2019-05-18T00:40:17.116Z,70
2019-05-18T00:41:19.484Z,70
2019-05-18T00:42:21.978Z,70
2019-05-18T00:43:24.634Z,70
2019-05-18T00:44:27.174Z,70
2019-05-18T00:45:29.276Z,70
2019-05-18T00:46:31.349Z,70
2019-05-18T00:47:43.057Z,70
2019-05-18T00:48:45.117Z,70
2019-05-18T00:49:47.809Z,70
2019-05-18T00:50:50.223Z,70
2019-05-18T00:51:52.756Z,70
2019-05-18T00:52:54.843Z,70
2019-05-18T00:53:56.937Z,70
2019-05-18T00:54:59.022Z,71
2019-05-18T00:56:01.433Z,71
2019-05-18T00:57:03.894Z,71
2019-05-18T00:58:06.663Z,70
2019-05-18T00:59:09.518Z,70
2019-05-18T01:00:11.606Z,71
2019-05-18T01:01:13.706Z,71
2019-05-18T01:02:15.790Z,71
2019-05-18T01:03:18.172Z,70
2019-05-18T01:04:20.248Z,71
2019-05-18T01:05:22.355Z,71
2019-05-18T01:06:24.434Z,71
2019-05-18T01:07:26.821Z,71
2019-05-18T01:08:28.904Z,71
2019-05-18T01:09:31.893Z,70
2019-05-18T01:10:34.560Z,71
2019-05-18T01:11:36.647Z,71
2019-05-18T01:12:38.726Z,71
2019-05-18T01:13:40.813Z,70
2019-05-18T01:14:42.948Z,71
2019-05-18T01:15:45.049Z,71
2019-05-18T01:16:47.189Z,70
2019-05-18T01:18:02.838Z,71
2019-05-18T01:19:04.932Z,71
2019-05-18T01:20:07.013Z,71
2019-05-18T01:21:09.063Z,70
2019-05-18T01:22:11.213Z,70
2019-05-18T01:23:13.283Z,71
2019-05-18T01:24:15.442Z,70
2019-05-18T01:25:17.537Z,71
2019-05-18T01:26:19.681Z,71
2019-05-18T01:27:21.769Z,71
2019-05-18T01:28:23.849Z,71
2019-05-18T01:29:25.986Z,71
2019-05-18T01:30:28.064Z,71
2019-05-18T01:31:30.238Z,71
2019-05-18T01:32:33.018Z,71
2019-05-18T01:33:35.109Z,71
2019-05-18T01:34:37.194Z,71
2019-05-18T01:35:39.664Z,71
2019-05-18T01:36:41.817Z,71
2019-05-18T01:37:43.902Z,71
2019-05-18T01:38:46.048Z,71
2019-05-18T01:39:48.526Z,71
2019-05-18T01:40:50.645Z,72
2019-05-18T01:41:53.359Z,71
2019-05-18T01:42:55.790Z,72
2019-05-18T01:43:58.616Z,71
2019-05-18T01:45:18.094Z,71
2019-05-18T01:46:20.465Z,71
2019-05-18T01:47:22.559Z,72
2019-05-18T01:48:24.643Z,71
2019-05-18T01:49:26.744Z,72
2019-05-18T01:50:28.832Z,72
2019-05-18T01:51:30.929Z,72
2019-05-18T01:52:33.308Z,72
2019-05-18T01:53:35.439Z,72
2019-05-18T01:54:37.530Z,72
2019-05-18T01:55:39.615Z,72
2019-05-18T01:56:41.735Z,72
2019-05-18T01:57:43.820Z,72
2019-05-18T01:58:46.380Z,72
2019-05-18T01:59:48.466Z,72
2019-05-18T02:00:50.547Z,72
2019-05-18T02:01:52.630Z,72
2019-05-18T02:02:54.706Z,72
2019-05-18T02:03:56.831Z,72
2019-05-18T02:04:58.935Z,72
2019-05-18T02:06:01.337Z,72
2019-05-18T02:07:04.597Z,72
2019-05-18T02:08:06.967Z,72
2019-05-18T02:09:09.429Z,72
2019-05-18T02:10:12.190Z,72
2019-05-18T02:11:15.012Z,72
2019-05-18T02:12:17.151Z,72
2019-05-18T02:13:19.272Z,72
2019-05-18T02:14:21.759Z,72
2019-05-18T02:15:24.118Z,72
2019-05-18T02:16:26.530Z,72
2019-05-18T02:17:28.955Z,72
2019-05-18T02:18:31.075Z,73
2019-05-18T02:19:33.558Z,73
2019-05-18T02:20:35.967Z,72
2019-05-18T02:21:38.056Z,73
2019-05-18T02:22:40.151Z,73
2019-05-18T02:23:42.341Z,72
2019-05-18T02:24:44.715Z,72
2019-05-18T02:25:46.857Z,72
2019-05-18T02:26:49.228Z,72
2019-05-18T02:27:51.732Z,73
2019-05-18T02:28:54.114Z,73
2019-05-18T02:29:56.200Z,73
2019-05-18T02:30:58.753Z,73
2019-05-18T02:32:01.250Z,72
2019-05-18T02:33:04.003Z,72
2019-05-18T02:34:06.718Z,72
2019-05-18T02:35:08.814Z,72
2019-05-18T02:36:10.976Z,72
2019-05-18T02:37:13.111Z,72
2019-05-18T02:38:15.965Z,72
2019-05-18T02:39:18.455Z,72
2019-05-18T02:40:20.885Z,72
2019-05-18T02:41:23.621Z,72
2019-05-18T02:42:30.951Z,72
2019-05-18T02:43:33.793Z,72
2019-05-18T02:44:36.259Z,73
2019-05-18T02:45:39.021Z,73
2019-05-18T02:46:41.088Z,73
2019-05-18T02:47:43.519Z,72
2019-05-18T02:48:51.839Z,73
2019-05-18T02:49:53.938Z,72
2019-05-18T02:50:56.088Z,73
2019-05-18T02:51:58.979Z,73
2019-05-18T02:53:02.121Z,72
2019-05-18T02:54:04.808Z,72
2019-05-18T02:55:07.614Z,72
2019-05-18T02:56:10.295Z,72
2019-05-18T02:57:12.775Z,72
2019-05-18T02:58:15.096Z,72
2019-05-18T02:59:17.462Z,72
2019-05-18T03:00:19.520Z,72
2019-05-18T03:01:21.881Z,73
2019-05-18T03:02:24.256Z,73
2019-05-18T03:03:26.432Z,73
2019-05-18T03:04:29.190Z,73
2019-05-18T03:05:32.290Z,73
2019-05-18T03:06:35.342Z,73
2019-05-18T03:07:37.491Z,72
2019-05-18T03:08:40.153Z,72
2019-05-18T03:09:42.250Z,73
2019-05-18T03:10:44.791Z,73
2019-05-18T03:11:47.202Z,72
2019-05-18T03:12:50.085Z,72
2019-05-18T03:13:52.189Z,72
2019-05-18T03:14:54.567Z,73
2019-05-18T03:15:56.653Z,72
2019-05-18T03:16:59.018Z,72
2019-05-18T03:18:01.175Z,73
2019-05-18T03:19:10.322Z,72
2019-05-18T03:20:12.824Z,72
2019-05-18T03:21:15.292Z,72
2019-05-18T03:22:17.427Z,72
2019-05-18T03:23:19.798Z,72
2019-05-18T03:24:21.879Z,72
2019-05-18T03:25:24.037Z,72
2019-05-18T03:26:26.143Z,72
2019-05-18T03:27:29.289Z,72
2019-05-18T03:28:32.568Z,72
2019-05-18T03:29:34.683Z,72
2019-05-18T03:30:37.403Z,72
2019-05-18T03:31:40.601Z,72
2019-05-18T03:32:43.902Z,72
2019-05-18T03:33:46.699Z,73
2019-05-18T03:34:48.874Z,72
2019-05-18T03:35:51.306Z,72
2019-05-18T03:36:54.442Z,72
2019-05-18T03:37:56.902Z,72
2019-05-18T03:38:59.287Z,72
2019-05-18T03:40:02.523Z,73
2019-05-18T03:41:04.633Z,72
2019-05-18T03:42:07.064Z,72
2019-05-18T03:43:09.158Z,73
2019-05-18T03:44:11.229Z,73
2019-05-18T03:45:13.780Z,73
2019-05-18T03:46:16.300Z,73
2019-05-18T03:47:19.255Z,73
2019-05-18T03:48:21.752Z,73
2019-05-18T03:49:28.653Z,73
2019-05-18T03:50:31.097Z,73
2019-05-18T03:51:33.196Z,73
2019-05-18T03:52:35.354Z,73
2019-05-18T03:53:37.732Z,73
2019-05-18T03:54:40.137Z,72
2019-05-18T03:55:42.247Z,73
2019-05-18T03:56:44.646Z,73
2019-05-18T03:57:47.008Z,73
2019-05-18T03:58:49.150Z,73
2019-05-18T03:59:51.320Z,73
2019-05-18T04:00:53.400Z,72
2019-05-18T04:01:56.013Z,72
2019-05-18T04:02:58.483Z,72
2019-05-18T04:04:01.241Z,72
2019-05-18T04:05:04.073Z,73
2019-05-18T04:06:06.190Z,73
2019-05-18T04:07:08.325Z,73
2019-05-18T04:08:11.069Z,73
2019-05-18T04:09:13.857Z,73
2019-05-18T04:10:15.936Z,73
2019-05-18T04:11:18.266Z,73
2019-05-18T04:12:20.716Z,73
2019-05-18T04:13:23.187Z,73
2019-05-18T04:14:25.685Z,73
2019-05-18T04:15:28.557Z,73
2019-05-18T04:16:30.685Z,73
2019-05-18T04:17:33.432Z,73
2019-05-18T04:18:35.939Z,73
2019-05-18T04:19:48.333Z,73
2019-05-18T04:20:50.404Z,73
2019-05-18T04:21:53.235Z,73
2019-05-18T04:22:55.672Z,73
2019-05-18T04:23:58.050Z,73
2019-05-18T04:25:00.487Z,73
2019-05-18T04:26:02.889Z,73
2019-05-18T04:27:05.297Z,73
2019-05-18T04:28:07.948Z,73
2019-05-18T04:29:10.104Z,73
2019-05-18T04:30:12.943Z,73
2019-05-18T04:31:15.593Z,72
2019-05-18T04:32:18.383Z,73
2019-05-18T04:33:20.768Z,73
2019-05-18T04:34:23.139Z,73
2019-05-18T04:35:25.806Z,72
2019-05-18T04:36:28.380Z,72
2019-05-18T04:37:30.747Z,72
2019-05-18T04:38:32.829Z,72
2019-05-18T04:39:35.234Z,72
2019-05-18T04:40:37.288Z,72
2019-05-18T04:41:39.837Z,72
2019-05-18T04:42:42.523Z,72
2019-05-18T04:43:45.153Z,72
2019-05-18T04:44:47.726Z,72
2019-05-18T04:45:49.871Z,72
2019-05-18T04:46:52.240Z,72
2019-05-18T04:47:54.370Z,72
2019-05-18T04:48:56.689Z,72
2019-05-18T04:50:07.517Z,72
2019-05-18T04:51:10.202Z,72
2019-05-18T04:52:12.347Z,72
2019-05-18T04:53:14.455Z,72
2019-05-18T04:54:17.001Z,72
2019-05-18T04:55:19.377Z,72
2019-05-18T04:56:21.788Z,72
2019-05-18T04:57:23.884Z,71
2019-05-18T04:58:26.668Z,72
2019-05-18T04:59:28.819Z,71
2019-05-18T05:00:30.888Z,71
2019-05-18T05:01:34.279Z,71
2019-05-18T05:02:36.980Z,71
2019-05-18T05:03:39.359Z,71
2019-05-18T05:04:41.449Z,71
2019-05-18T05:05:43.551Z,71
2019-05-18T05:06:46.039Z,71
2019-05-18T05:07:48.406Z,71
2019-05-18T05:08:50.547Z,71
2019-05-18T05:09:52.940Z,71
2019-05-18T05:10:55.015Z,71
2019-05-18T05:11:57.430Z,71
2019-05-18T05:12:59.522Z,71
2019-05-18T05:14:02.562Z,70
2019-05-18T05:15:05.240Z,71
2019-05-18T05:16:07.378Z,71
2019-05-18T05:17:10.080Z,70
2019-05-18T05:18:12.163Z,70
2019-05-18T05:19:14.307Z,70
2019-05-18T05:20:21.308Z,70
2019-05-18T05:21:23.455Z,70
2019-05-18T05:22:25.537Z,70
2019-05-18T05:23:27.573Z,70
2019-05-18T05:24:29.976Z,70
2019-05-18T05:25:32.077Z,70
2019-05-18T05:26:34.194Z,70
2019-05-18T05:27:36.275Z,70
2019-05-18T05:28:38.424Z,70
2019-05-18T05:29:41.518Z,70
2019-05-18T05:30:43.899Z,69
2019-05-18T05:31:46.422Z,69
2019-05-18T05:32:48.548Z,69
2019-05-18T05:33:50.574Z,69
2019-05-18T05:34:53.075Z,69
2019-05-18T05:35:55.209Z,69
2019-05-18T05:36:57.856Z,69
2019-05-18T05:37:59.949Z,69
2019-05-18T05:39:02.358Z,68
2019-05-18T05:40:04.746Z,68
2019-05-18T05:41:07.311Z,68
2019-05-18T05:42:10.059Z,68
2019-05-18T05:43:12.137Z,68
2019-05-18T05:44:14.507Z,68
2019-05-18T05:45:16.607Z,68
2019-05-18T05:46:18.747Z,68
2019-05-18T05:47:21.267Z,68
2019-05-18T05:48:23.811Z,67
2019-05-18T05:49:26.905Z,67
2019-05-18T05:50:37.748Z,67
2019-05-18T05:51:39.829Z,67
2019-05-18T05:52:42.913Z,66
2019-05-18T05:53:45.048Z,67
2019-05-18T05:54:47.127Z,67
2019-05-18T05:55:49.274Z,67
2019-05-18T05:56:51.357Z,67
2019-05-18T05:57:53.858Z,67
2019-05-18T05:58:55.973Z,67
2019-05-18T05:59:58.085Z,67
2019-05-18T06:01:00.619Z,67
2019-05-18T06:02:03.921Z,66
2019-05-18T06:03:06.077Z,66
2019-05-18T06:04:08.158Z,67
2019-05-18T06:05:10.916Z,67
2019-05-18T06:06:13.055Z,66
2019-05-18T06:07:15.440Z,66
2019-05-18T06:08:17.567Z,66
2019-05-18T06:09:19.672Z,64
2019-05-18T06:10:21.766Z,65
2019-05-18T06:11:24.422Z,65
2019-05-18T06:12:26.520Z,66
2019-05-18T06:13:28.664Z,65
2019-05-18T06:14:30.742Z,65
2019-05-18T06:15:32.881Z,65
2019-05-18T06:16:35.003Z,65
2019-05-18T06:17:37.085Z,66
2019-05-18T06:18:39.244Z,66
2019-05-18T06:19:41.323Z,65
2019-05-18T06:20:52.901Z,65
2019-05-18T06:21:55.331Z,65
2019-05-18T06:22:57.748Z,65
2019-05-18T06:23:59.857Z,64
2019-05-18T06:25:05.262Z,64
2019-05-18T06:26:09.471Z,64
2019-05-18T06:27:11.898Z,64
2019-05-18T06:28:14.030Z,64
2019-05-18T06:29:16.126Z,64
2019-05-18T06:30:18.609Z,64
2019-05-18T06:31:24.716Z,64
2019-05-18T06:32:27.172Z,63
2019-05-18T06:33:29.623Z,63
2019-05-18T06:34:31.663Z,64
2019-05-18T06:35:33.807Z,64
2019-05-18T06:36:35.903Z,63
2019-05-18T06:37:38.374Z,64
2019-05-18T06:38:40.564Z,64
2019-05-18T06:39:42.644Z,64
2019-05-18T06:40:45.145Z,64
2019-05-18T06:41:47.214Z,64
2019-05-18T06:42:49.365Z,64
2019-05-18T06:43:51.737Z,63
2019-05-18T06:44:54.203Z,62
2019-05-18T06:45:56.750Z,63
2019-05-18T06:46:59.114Z,63
2019-05-18T06:48:01.246Z,62
2019-05-18T06:49:03.332Z,62
2019-05-18T06:50:05.492Z,62
2019-05-18T06:51:08.981Z,62
2019-05-18T06:52:11.352Z,62
2019-05-18T06:53:13.825Z,62
2019-05-18T06:54:16.574Z,63
2019-05-18T06:55:18.726Z,63
2019-05-18T06:56:20.816Z,62
2019-05-18T06:57:22.922Z,62
2019-05-18T06:58:25.060Z,61
2019-05-18T06:59:27.425Z,61
2019-05-18T07:00:29.964Z,61
2019-05-18T07:01:32.040Z,61
2019-05-18T07:02:34.194Z,62
2019-05-18T07:03:36.297Z,61
2019-05-18T07:04:38.344Z,61
2019-05-18T07:05:41.134Z,61
2019-05-18T07:06:43.574Z,61
2019-05-18T07:07:45.997Z,61
2019-05-18T07:08:48.410Z,61
2019-05-18T07:09:50.505Z,61
2019-05-18T07:10:52.883Z,61
2019-05-18T07:11:57.322Z,61
2019-05-18T07:13:00.076Z,60
2019-05-18T07:14:02.190Z,61
2019-05-18T07:15:04.898Z,61
2019-05-18T07:16:06.995Z,60
2019-05-18T07:17:09.448Z,60
2019-05-18T07:18:11.629Z,60
2019-05-18T07:19:13.875Z,60
2019-05-18T07:20:16.793Z,60
2019-05-18T07:21:23.874Z,60
2019-05-18T07:22:26.151Z,60
2019-05-18T07:23:28.351Z,60
2019-05-18T07:24:30.843Z,60
2019-05-18T07:25:33.142Z,60
2019-05-18T07:26:35.342Z,60
2019-05-18T07:27:37.934Z,60
2019-05-18T07:28:41.216Z,59
2019-05-18T07:29:43.717Z,58
2019-05-18T07:30:45.903Z,58
2019-05-18T07:31:48.154Z,58
2019-05-18T07:32:50.450Z,58
2019-05-18T07:33:52.640Z,58
2019-05-18T07:34:55.236Z,58
2019-05-18T07:35:57.488Z,58
2019-05-18T07:36:59.884Z,58
2019-05-18T07:38:02.561Z,58
2019-05-18T07:39:04.758Z,58
2019-05-18T07:40:07.024Z,58
2019-05-18T07:41:09.247Z,58
2019-05-18T07:42:11.437Z,58
2019-05-18T07:43:13.631Z,59
2019-05-18T07:44:15.861Z,57
2019-05-18T07:45:18.403Z,57
2019-05-18T07:46:20.877Z,57
2019-05-18T07:47:23.156Z,57
2019-05-18T07:48:25.379Z,57
2019-05-18T07:49:27.866Z,57
2019-05-18T07:50:30.127Z,58
2019-05-18T07:51:38.487Z,57
2019-05-18T07:52:41.081Z,57
2019-05-18T07:53:43.291Z,57
2019-05-18T07:54:45.569Z,56
2019-05-18T07:55:47.763Z,56
2019-05-18T07:56:49.960Z,57
2019-05-18T07:57:53.748Z,56
2019-05-18T07:58:55.939Z,55
2019-05-18T07:59:58.523Z,55
2019-05-18T08:01:00.650Z,56
2019-05-18T08:02:02.857Z,55
2019-05-18T08:03:06.087Z,55
2019-05-18T08:04:08.644Z,54
2019-05-18T08:05:10.863Z,54
2019-05-18T08:06:13.078Z,54
2019-05-18T08:07:15.400Z,55
2019-05-18T08:08:17.613Z,55
2019-05-18T08:09:19.799Z,54
2019-05-18T08:10:21.987Z,57
2019-05-18T08:11:24.175Z,54
2019-05-18T08:12:26.730Z,55
2019-05-18T08:13:28.986Z,55
2019-05-18T08:14:31.236Z,54
2019-05-18T08:15:33.724Z,55
2019-05-18T08:16:36.183Z,55
2019-05-18T08:17:38.840Z,54
2019-05-18T08:18:41.029Z,54
2019-05-18T08:19:43.294Z,54
2019-05-18T08:20:45.871Z,54
2019-05-18T08:21:54.549Z,53
2019-05-18T08:22:56.753Z,53
2019-05-18T08:23:58.946Z,54
2019-05-18T08:25:01.239Z,53
2019-05-18T08:26:03.866Z,51
2019-05-18T08:27:06.411Z,51
2019-05-18T08:28:08.612Z,50
2019-05-18T08:29:11.194Z,51
2019-05-18T08:30:13.615Z,49
2019-05-18T08:31:15.842Z,49
2019-05-18T08:32:18.099Z,49
2019-05-18T08:33:20.573Z,49
2019-05-18T08:34:23.163Z,48
2019-05-18T08:35:28.872Z,48
2019-05-18T08:36:31.100Z,47
2019-05-18T08:37:33.375Z,47
2019-05-18T08:38:35.558Z,47
2019-05-18T08:39:38.183Z,47
2019-05-18T08:40:40.383Z,46
2019-05-18T08:41:42.633Z,48
2019-05-18T08:42:44.829Z,49
2019-05-18T08:43:47.059Z,47
2019-05-18T08:44:49.324Z,49
2019-05-18T08:45:52.225Z,48
2019-05-18T08:46:54.499Z,47
2019-05-18T08:47:56.968Z,47
2019-05-18T08:48:59.100Z,48
2019-05-18T08:50:01.307Z,47
2019-05-18T08:51:03.740Z,46
2019-05-18T08:52:09.601Z,45
2019-05-18T08:53:12.467Z,48
2019-05-18T08:54:15.098Z,45
2019-05-18T08:55:17.333Z,44
2019-05-18T08:56:21.229Z,44
2019-05-18T08:57:23.482Z,44
2019-05-18T08:58:25.674Z,44
2019-05-18T08:59:28.866Z,43
2019-05-18T09:00:31.910Z,43
2019-05-18T09:01:34.733Z,44
2019-05-18T09:02:36.935Z,43
2019-05-18T09:03:39.485Z,44
2019-05-18T09:04:42.164Z,44
2019-05-18T09:05:44.394Z,45
2019-05-18T09:06:46.654Z,45
2019-05-18T09:07:49.356Z,45
2019-05-18T09:08:51.562Z,44
2019-05-18T09:09:54.132Z,44
2019-05-18T09:10:57.260Z,43
2019-05-18T09:11:59.600Z,43
2019-05-18T09:13:01.849Z,45
2019-05-18T09:14:05.102Z,45
2019-05-18T09:15:08.324Z,45
2019-05-18T09:16:11.104Z,44
2019-05-18T09:17:13.315Z,44
2019-05-18T09:18:16.269Z,44
2019-05-18T09:19:18.973Z,44
2019-05-18T09:20:21.528Z,45
2019-05-18T09:21:24.074Z,46
2019-05-18T09:22:26.645Z,43
2019-05-18T09:23:28.834Z,43
2019-05-18T09:24:31.184Z,43
2019-05-18T09:25:33.369Z,43
2019-05-18T09:26:35.660Z,42
2019-05-18T09:27:37.886Z,42
2019-05-18T09:28:40.724Z,43
2019-05-18T09:29:43.219Z,42
2019-05-18T09:30:45.383Z,42
2019-05-18T09:31:47.613Z,42
2019-05-18T09:32:50.116Z,41
2019-05-18T09:33:52.385Z,42
2019-05-18T09:34:54.571Z,42
2019-05-18T09:35:57.351Z,41
2019-05-18T09:36:59.654Z,42
2019-05-18T09:38:01.852Z,40
2019-05-18T09:39:04.193Z,41
2019-05-18T09:40:06.354Z,40
2019-05-18T09:41:08.485Z,39
2019-05-18T09:42:10.689Z,40
2019-05-18T09:43:12.890Z,39
2019-05-18T09:44:15.142Z,39
2019-05-18T09:45:17.374Z,39
2019-05-18T09:46:19.656Z,38
2019-05-18T09:47:22.154Z,38
2019-05-18T09:48:24.375Z,38
2019-05-18T09:49:26.598Z,38
2019-05-18T09:50:28.799Z,38
2019-05-18T09:51:31.337Z,38
2019-05-18T09:52:47.149Z,39
2019-05-18T09:53:53.102Z,38
2019-05-18T09:54:55.234Z,38
2019-05-18T09:55:57.440Z,37
2019-05-18T09:56:59.575Z,37
2019-05-18T09:58:02.390Z,37
2019-05-18T09:59:04.600Z,37
2019-05-18T10:00:06.725Z,37
2019-05-18T10:01:08.863Z,37
2019-05-18T10:02:11.032Z,37
2019-05-18T10:03:13.112Z,38
2019-05-18T10:04:15.209Z,37
2019-05-18T10:05:17.639Z,37
2019-05-18T10:06:20.400Z,38
2019-05-18T10:07:22.507Z,37
2019-05-18T10:08:24.888Z,36
2019-05-18T10:09:39.985Z,37
2019-05-18T10:10:42.136Z,37
2019-05-18T10:11:44.235Z,37
2019-05-18T10:12:46.626Z,38
2019-05-18T10:13:48.805Z,37
2019-05-18T10:14:50.909Z,37
2019-05-18T10:15:53.470Z,36
2019-05-18T10:16:56.254Z,36
2019-05-18T10:17:58.688Z,38
2019-05-18T10:19:00.897Z,37
2019-05-18T10:20:03.012Z,38
2019-05-18T10:21:05.855Z,37
2019-05-18T10:22:07.995Z,38
2019-05-18T10:23:15.416Z,37
2019-05-18T10:24:18.241Z,36
2019-05-18T10:25:20.352Z,36
2019-05-18T10:26:22.541Z,36
2019-05-18T10:27:24.622Z,36
2019-05-18T10:28:26.785Z,35
2019-05-18T10:29:29.512Z,35
2019-05-18T10:30:32.018Z,35
2019-05-18T10:31:34.163Z,35
2019-05-18T10:32:36.269Z,35
2019-05-18T10:33:38.466Z,36
2019-05-18T10:34:40.941Z,35
2019-05-18T10:35:43.143Z,34
2019-05-18T10:36:45.546Z,34
2019-05-18T10:37:47.644Z,35
2019-05-18T10:38:49.813Z,35
2019-05-18T10:39:51.902Z,35
2019-05-18T10:40:54.083Z,35
2019-05-18T10:41:56.202Z,35
2019-05-18T10:42:58.355Z,36
2019-05-18T10:44:00.722Z,36
2019-05-18T10:45:02.883Z,36
2019-05-18T10:46:05.710Z,36
2019-05-18T10:47:07.821Z,37
2019-05-18T10:48:10.761Z,37
2019-05-18T10:49:13.804Z,37
2019-05-18T10:50:15.941Z,35
2019-05-18T10:51:18.056Z,34
2019-05-18T10:52:20.169Z,35
2019-05-18T10:53:30.370Z,35
2019-05-18T10:54:34.416Z,34
2019-05-18T10:55:37.088Z,34
2019-05-18T10:56:39.898Z,35
2019-05-18T10:57:42.343Z,36
2019-05-18T10:58:44.466Z,35
2019-05-18T10:59:46.563Z,35
2019-05-18T11:00:48.747Z,35
2019-05-18T11:01:51.236Z,35
2019-05-18T11:02:53.393Z,35
2019-05-18T11:03:55.506Z,35
2019-05-18T11:04:57.996Z,35
2019-05-18T11:06:00.155Z,35
2019-05-18T11:07:02.315Z,34
2019-05-18T11:08:04.506Z,33
2019-05-18T11:09:06.994Z,33
2019-05-18T11:10:09.546Z,33
2019-05-18T11:11:12.333Z,33
2019-05-18T11:12:14.432Z,33
2019-05-18T11:13:18.591Z,33
2019-05-18T11:14:20.727Z,34
2019-05-18T11:15:23.942Z,34
2019-05-18T11:16:26.850Z,34
2019-05-18T11:17:28.994Z,34
2019-05-18T11:18:32.541Z,35
2019-05-18T11:19:34.937Z,35
2019-05-18T11:20:37.778Z,35
2019-05-18T11:21:39.896Z,35
2019-05-18T11:22:42.457Z,35
2019-05-18T11:23:48.869Z,35
2019-05-18T11:24:51.299Z,35
2019-05-18T11:25:53.466Z,35
2019-05-18T11:26:55.604Z,35
2019-05-18T11:27:57.714Z,35
2019-05-18T11:28:59.899Z,34
2019-05-18T11:30:04.218Z,34
2019-05-18T11:31:07.042Z,34
2019-05-18T11:32:09.209Z,34
2019-05-18T11:33:11.767Z,34
2019-05-18T11:34:14.589Z,34
2019-05-18T11:35:16.772Z,33
2019-05-18T11:36:18.868Z,34
2019-05-18T11:37:22.267Z,34
2019-05-18T11:38:24.676Z,34
2019-05-18T11:39:27.222Z,34
2019-05-18T11:40:29.404Z,34
2019-05-18T11:41:31.538Z,34
2019-05-18T11:42:34.396Z,35
2019-05-18T11:43:36.806Z,34
2019-05-18T11:44:38.962Z,33
2019-05-18T11:45:41.926Z,33
2019-05-18T11:46:44.100Z,33
2019-05-18T11:47:46.445Z,33
2019-05-18T11:48:48.796Z,34
2019-05-18T11:49:52.772Z,33
2019-05-18T11:50:55.634Z,34
2019-05-18T11:51:58.407Z,34
2019-05-18T11:53:00.598Z,34
2019-05-18T11:54:04.890Z,33
2019-05-18T11:55:07.368Z,33
2019-05-18T11:56:09.514Z,33
2019-05-18T11:57:12.891Z,33
2019-05-18T11:58:15.161Z,32
2019-05-18T11:59:17.288Z,32
2019-05-18T12:00:19.800Z,32
2019-05-18T12:01:22.237Z,31
2019-05-18T12:02:24.345Z,31
2019-05-18T12:03:27.054Z,31
2019-05-18T12:04:29.192Z,30
2019-05-18T12:05:31.319Z,30
2019-05-18T12:06:34.390Z,31
2019-05-18T12:07:36.577Z,30
2019-05-18T12:08:38.998Z,30
2019-05-18T12:09:41.363Z,31
2019-05-18T12:10:43.497Z,31
2019-05-18T12:11:45.611Z,30
2019-05-18T12:12:48.468Z,30
2019-05-18T12:13:50.892Z,30
2019-05-18T12:14:53.029Z,31
2019-05-18T12:15:55.558Z,32
2019-05-18T12:16:57.648Z,32
2019-05-18T12:17:59.790Z,31
2019-05-18T12:19:01.898Z,31
2019-05-18T12:20:04.123Z,31
2019-05-18T12:21:06.257Z,32
2019-05-18T12:22:08.455Z,32
2019-05-18T12:23:11.660Z,32
2019-05-18T12:24:17.180Z,32
2019-05-18T12:25:19.343Z,32
2019-05-18T12:26:21.459Z,33
2019-05-18T12:27:23.617Z,32
2019-05-18T12:28:25.715Z,33
2019-05-18T12:29:27.943Z,33
2019-05-18T12:30:30.156Z,33
2019-05-18T12:31:32.388Z,33
2019-05-18T12:32:34.680Z,33
2019-05-18T12:33:36.895Z,34
2019-05-18T12:34:39.190Z,34
2019-05-18T12:35:41.334Z,33
2019-05-18T12:36:43.540Z,34
2019-05-18T12:37:45.792Z,34
2019-05-18T12:38:48.020Z,34
2019-05-18T12:39:51.157Z,34
2019-05-18T12:40:53.353Z,33
2019-05-18T12:41:55.665Z,32
2019-05-18T12:42:57.904Z,32
2019-05-18T12:44:00.048Z,32
2019-05-18T12:45:02.372Z,33
2019-05-18T12:46:04.535Z,33
2019-05-18T12:47:06.901Z,34
2019-05-18T12:48:09.427Z,34
2019-05-18T12:49:11.752Z,33
2019-05-18T12:50:14.300Z,33
2019-05-18T12:51:16.934Z,32
2019-05-18T12:52:19.593Z,33
2019-05-18T12:53:21.807Z,32
2019-05-18T12:54:48.197Z,32
2019-05-18T12:55:50.762Z,32
2019-05-18T12:56:53.402Z,32
2019-05-18T12:57:55.927Z,32
2019-05-18T12:58:58.908Z,34
2019-05-18T13:00:01.143Z,33
2019-05-18T13:01:03.417Z,33
2019-05-18T13:02:05.710Z,33
2019-05-18T13:03:08.630Z,33
2019-05-18T13:04:10.831Z,33
2019-05-18T13:05:13.050Z,32
2019-05-18T13:06:16.100Z,33
2019-05-18T13:07:18.778Z,31
2019-05-18T13:08:20.974Z,31
2019-05-18T13:09:25.116Z,30
2019-05-18T13:10:27.329Z,31
2019-05-18T13:11:29.562Z,29
2019-05-18T13:12:31.814Z,30
2019-05-18T13:13:34.242Z,30
2019-05-18T13:14:36.532Z,29
2019-05-18T13:15:39.125Z,30
2019-05-18T13:16:41.304Z,29
2019-05-18T13:17:43.534Z,29
2019-05-18T13:18:46.123Z,29
2019-05-18T13:19:48.641Z,29
2019-05-18T13:20:50.832Z,30
2019-05-18T13:21:53.117Z,30
2019-05-18T13:22:55.702Z,30
2019-05-18T13:23:57.977Z,30
2019-05-18T13:25:00.878Z,30
2019-05-18T13:26:03.075Z,31
2019-05-18T13:27:05.667Z,32
2019-05-18T13:28:08.291Z,32
2019-05-18T13:29:11.073Z,32
2019-05-18T13:30:13.713Z,31
2019-05-18T13:31:16.016Z,31
2019-05-18T13:32:18.237Z,31
2019-05-18T13:33:20.459Z,32
2019-05-18T13:34:22.732Z,31
2019-05-18T13:35:24.920Z,32
2019-05-18T13:36:27.773Z,32
2019-05-18T13:37:29.996Z,32
2019-05-18T13:38:32.134Z,31
2019-05-18T13:39:34.643Z,32
2019-05-18T13:40:37.131Z,33
2019-05-18T13:41:39.384Z,32
2019-05-18T13:42:42.372Z,30
2019-05-18T13:43:44.618Z,31
2019-05-18T13:44:47.163Z,32
2019-05-18T13:45:50.445Z,31
2019-05-18T13:46:53.028Z,31
2019-05-18T13:47:55.216Z,31
2019-05-18T13:48:57.485Z,32
2019-05-18T13:50:00.005Z,33
2019-05-18T13:51:02.252Z,30
2019-05-18T13:52:04.777Z,29
2019-05-18T13:53:07.567Z,29
2019-05-18T13:54:09.844Z,28
2019-05-18T13:55:12.039Z,28
2019-05-18T13:56:14.323Z,30
2019-05-18T13:57:16.528Z,30
2019-05-18T13:58:19.429Z,29
2019-05-18T13:59:22.020Z,29
2019-05-18T14:00:24.249Z,29
2019-05-18T14:01:26.507Z,29
2019-05-18T14:02:28.703Z,28
2019-05-18T14:03:30.985Z,30
2019-05-18T14:04:33.210Z,29
2019-05-18T14:05:35.717Z,28
2019-05-18T14:06:38.383Z,30
2019-05-18T14:07:41.357Z,29
2019-05-18T14:08:43.992Z,29
2019-05-18T14:09:46.216Z,28
2019-05-18T14:10:49.168Z,28
2019-05-18T14:11:51.370Z,28
2019-05-18T14:12:54.256Z,29
2019-05-18T14:13:56.763Z,30
2019-05-18T14:14:58.987Z,30
2019-05-18T14:16:01.684Z,30
2019-05-18T14:17:03.918Z,30
2019-05-18T14:18:06.777Z,31
2019-05-18T14:19:09.361Z,31
2019-05-18T14:20:11.671Z,31
2019-05-18T14:21:14.235Z,31
2019-05-18T14:22:16.726Z,31
2019-05-18T14:23:19.231Z,31
2019-05-18T14:24:21.710Z,31
2019-05-18T14:25:23.936Z,31
2019-05-18T14:26:26.203Z,31
2019-05-18T14:27:28.421Z,31
2019-05-18T14:28:30.658Z,32
2019-05-18T14:29:33.188Z,32
2019-05-18T14:30:35.699Z,32
2019-05-18T14:31:37.840Z,32
2019-05-18T14:32:40.055Z,33
2019-05-18T14:33:42.327Z,33
2019-05-18T14:34:44.889Z,33
2019-05-18T14:35:47.455Z,33
2019-05-18T14:36:49.667Z,33
2019-05-18T14:37:52.392Z,33
2019-05-18T14:38:57.896Z,33
2019-05-18T14:40:00.091Z,33
2019-05-18T14:41:02.367Z,34
2019-05-18T14:42:04.590Z,33
2019-05-18T14:43:07.276Z,33
2019-05-18T14:44:09.751Z,33
2019-05-18T14:45:12.644Z,32
2019-05-18T14:46:14.910Z,32
2019-05-18T14:47:17.111Z,31
2019-05-18T14:48:19.386Z,31
2019-05-18T14:49:21.602Z,30
2019-05-18T14:50:23.815Z,30
2019-05-18T14:51:26.722Z,29
2019-05-18T14:52:29.330Z,30
2019-05-18T14:53:31.565Z,30